createdAt,value
2022-09-13T00:01:06.610Z,95867.09
2022-09-13T00:06:11.957Z,95863.41
2022-09-13T00:11:18.564Z,95854.31
2022-09-13T00:16:22.289Z,95862.66
2022-09-13T00:21:27.786Z,95856.84
2022-09-13T00:26:30.315Z,95851.88
2022-09-13T00:31:32.884Z,95858.75
2022-09-13T00:36:36.791Z,95854.41
2022-09-13T00:41:39.678Z,95847.97
2022-09-13T00:46:45.182Z,95839.53
2022-09-13T00:51:50.479Z,95839.94
2022-09-13T00:56:55.697Z,95834.69
2022-09-13T01:01:58.991Z,95836.66
2022-09-13T01:07:04.634Z,95830.13
2022-09-13T01:12:10.172Z,95833.84
2022-09-13T01:17:12.838Z,95831.03
2022-09-13T01:22:35.194Z,95819.97
2022-09-13T01:27:52.984Z,95812.44
2022-09-13T01:33:02.729Z,95808.78
2022-09-13T01:38:12.346Z,95810.06
2022-09-13T01:43:23.937Z,95810.22
2022-09-13T01:48:34.390Z,95816.31
2022-09-13T01:53:42.060Z,95804.78
2022-09-13T01:58:46.730Z,95808.75
2022-09-13T02:03:53.765Z,95792.66
2022-09-13T02:08:58.069Z,95790.47
2022-09-13T02:14:05.729Z,95782.78
2022-09-13T02:19:13.594Z,95786.69
2022-09-13T02:24:17.707Z,95782.19
2022-09-13T02:29:22.378Z,95791.03
2022-09-13T02:34:28.630Z,95785.22
2022-09-13T02:39:32.585Z,95780.25
2022-09-13T02:44:37.589Z,95779.84
2022-09-13T02:49:48.133Z,95788.13
2022-09-13T02:54:52.685Z,95780.03
2022-09-13T02:59:55.237Z,95786.97
2022-09-13T03:04:59.426Z,95792.09
2022-09-13T03:10:06.240Z,95788.84
2022-09-13T03:15:15.306Z,95787.94
2022-09-13T03:20:22.925Z,95787.19
2022-09-13T03:25:31.966Z,95800.81
2022-09-13T03:30:36.852Z,95801.03
2022-09-13T03:35:43.981Z,95798.69
2022-09-13T03:40:49.771Z,95770.13
2022-09-13T03:45:54.303Z,95768.16
2022-09-13T03:50:58.252Z,95786.13
2022-09-13T03:56:00.861Z,95788.13
2022-09-13T04:01:03.419Z,95766.44
2022-09-13T04:06:07.817Z,95758.13
2022-09-13T04:11:10.430Z,95761.13
2022-09-13T04:16:13.134Z,95763.84
2022-09-13T04:21:17.764Z,95768.69
2022-09-13T04:26:20.293Z,95761.53
2022-09-13T04:31:22.827Z,95768.28
2022-09-13T04:36:26.810Z,95763.81
2022-09-13T04:41:29.629Z,95759.84
2022-09-13T04:46:32.124Z,95760.13
2022-09-13T04:51:36.017Z,95761.41
2022-09-13T04:56:38.553Z,95760.06
2022-09-13T05:01:41.274Z,95751.41
2022-09-13T05:06:45.321Z,95752.69
2022-09-13T05:11:47.986Z,95756.44
2022-09-13T05:16:50.534Z,95743.47
2022-09-13T05:21:54.455Z,95744.25
2022-09-13T05:26:56.996Z,95742.53
2022-09-13T05:31:59.539Z,95734.75
2022-09-13T05:37:03.457Z,95726.22
2022-09-13T05:42:06.274Z,95717.38
2022-09-13T05:47:08.816Z,95723.72
2022-09-13T05:52:12.724Z,95725.69
2022-09-13T05:57:15.233Z,95748.88
2022-09-13T06:02:17.772Z,95747.16
2022-09-13T06:07:21.713Z,95757.38
2022-09-13T06:12:24.210Z,95753.59
2022-09-13T06:17:26.713Z,95734.56
2022-09-13T06:22:33.292Z,95730.44
2022-09-13T06:27:35.865Z,95736.56
2022-09-13T06:32:38.391Z,95745.56
2022-09-13T06:37:42.305Z,95770.75
2022-09-13T06:42:44.982Z,95762.78
2022-09-13T06:47:47.510Z,95760.94
2022-09-13T06:52:51.412Z,95756.56
2022-09-13T06:57:54.174Z,95738.16
2022-09-13T07:02:56.700Z,95743.47
2022-09-13T07:08:00.983Z,95746.97
2022-09-13T07:13:03.515Z,95748.22
2022-09-13T07:18:07.640Z,95732.03
2022-09-13T07:23:15.126Z,95749.06
2022-09-13T07:28:19.498Z,95737.97
2022-09-13T07:33:24.718Z,95746.28
2022-09-13T07:38:28.925Z,95732.56
2022-09-13T07:43:31.469Z,95739.50
2022-09-13T07:48:35.089Z,95733.44
2022-09-13T07:53:39.677Z,95729.00
2022-09-13T07:58:43.243Z,95734.28
2022-09-13T08:03:46.345Z,95735.53
2022-09-13T08:08:50.662Z,95735.13
2022-09-13T08:13:53.507Z,95728.19
2022-09-13T08:18:56.869Z,95737.09
2022-09-13T08:24:00.781Z,95731.00
2022-09-13T08:29:04.796Z,95740.13
2022-09-13T08:34:08.633Z,95743.16
2022-09-13T08:39:13.781Z,95754.88
2022-09-13T08:44:23.268Z,95740.59
2022-09-13T08:49:29.246Z,95742.56
2022-09-13T08:54:33.672Z,95728.91
2022-09-13T08:59:46.331Z,95734.25
2022-09-13T09:04:52.033Z,95736.59
2022-09-13T09:09:57.481Z,95746.22
2022-09-13T09:15:03.114Z,95738.75
2022-09-13T09:20:10.620Z,95736.59
2022-09-13T09:25:16.164Z,95736.09
2022-09-13T09:30:18.845Z,95726.16
2022-09-13T09:35:29.677Z,95724.78
2022-09-13T09:40:35.020Z,95711.72
2022-09-13T09:45:41.789Z,95712.88
2022-09-13T09:50:46.545Z,95718.34
2022-09-13T09:55:53.319Z,95713.69
2022-09-13T10:00:57.022Z,95706.81
2022-09-13T10:06:05.949Z,95703.16
2022-09-13T10:11:10.752Z,95689.63
2022-09-13T10:16:24.708Z,95695.97
2022-09-13T10:21:28.137Z,95681.63
2022-09-13T10:26:34.221Z,95676.97
2022-09-13T10:31:38.217Z,95678.34
2022-09-13T10:36:53.134Z,95684.84
2022-09-13T10:41:59.776Z,95687.72
2022-09-13T10:47:04.276Z,95674.94
2022-09-13T10:52:24.516Z,95676.25
2022-09-13T10:57:34.555Z,95664.09
2022-09-13T11:02:47.811Z,95666.06
2022-09-13T11:07:57.364Z,95663.78
2022-09-13T11:13:07.665Z,95664.94
2022-09-13T11:18:31.078Z,95652.44
2022-09-13T11:23:40.910Z,95644.25
2022-09-13T11:28:51.505Z,95649.22
2022-09-13T11:33:59.923Z,95649.75
2022-09-13T11:39:10.011Z,95647.88
2022-09-13T11:44:26.772Z,95651.38
2022-09-13T11:49:44.001Z,95653.59
2022-09-13T11:54:54.120Z,95642.50
2022-09-13T12:00:00.115Z,95657.66
2022-09-13T12:05:21.653Z,95647.09
2022-09-13T12:10:26.901Z,95634.06
2022-09-13T12:15:36.322Z,95635.16
2022-09-13T12:20:40.476Z,95631.88
2022-09-13T12:25:47.329Z,95618.19
2022-09-13T12:30:53.464Z,95626.75
2022-09-13T12:36:06.916Z,95624.13
2022-09-13T12:41:22.133Z,95614.59
2022-09-13T12:46:37.840Z,95609.34
2022-09-13T12:51:51.632Z,95601.88
2022-09-13T12:57:05.529Z,95583.56
2022-09-13T13:02:24.752Z,95589.91
2022-09-13T13:07:28.487Z,95586.63
2022-09-13T13:12:33.284Z,95587.53
2022-09-13T13:17:38.633Z,95576.66
2022-09-13T13:22:51.252Z,95574.06
2022-09-13T13:27:55.096Z,95563.59
2022-09-13T13:33:14.263Z,95564.41
2022-09-13T13:38:17.793Z,95563.94
2022-09-13T13:43:31.668Z,95559.63
2022-09-13T13:48:39.884Z,95553.72
2022-09-13T13:53:44.037Z,95545.63
2022-09-13T13:58:48.449Z,95560.09
2022-09-13T14:03:56.047Z,95558.44
2022-09-13T14:09:12.492Z,95554.91
2022-09-13T14:14:24.689Z,95541.06
2022-09-13T14:19:29.620Z,95537.25
2022-09-13T14:24:37.309Z,95530.22
2022-09-13T14:29:40.543Z,95523.69
2022-09-13T14:34:51.494Z,95518.03
2022-09-13T14:39:57.461Z,95513.34
2022-09-13T14:45:00.045Z,95514.41
2022-09-13T14:50:06.918Z,95507.69
2022-09-13T14:55:13.834Z,95497.25
2022-09-13T15:00:18.641Z,95487.03
2022-09-13T15:05:24.441Z,95487.19
2022-09-13T15:10:28.253Z,95492.09
2022-09-13T15:15:35.825Z,95477.50
2022-09-13T15:20:50.546Z,95473.47
2022-09-13T15:25:54.492Z,95484.59
2022-09-13T15:30:58.317Z,95471.75
2022-09-13T15:36:19.629Z,95462.69
2022-09-13T15:41:25.013Z,95465.53
2022-09-13T15:46:27.871Z,95464.78
2022-09-13T15:51:30.469Z,95471.09
2022-09-13T15:56:37.842Z,95463.06
2022-09-13T16:01:40.442Z,95468.22
2022-09-13T16:06:43.317Z,95464.25
2022-09-13T16:11:47.698Z,95450.63
2022-09-13T16:16:51.401Z,95452.88
2022-09-13T16:21:53.960Z,95452.94
2022-09-13T16:27:00.517Z,95448.41
2022-09-13T16:32:03.333Z,95447.63
2022-09-13T16:37:06.187Z,95443.03
2022-09-13T16:42:10.146Z,95447.25
2022-09-13T16:47:12.991Z,95442.97
2022-09-13T16:52:15.545Z,95446.41
2022-09-13T16:57:20.067Z,95437.00
2022-09-13T17:02:22.729Z,95435.59
2022-09-13T17:07:25.354Z,95433.66
2022-09-13T17:12:29.309Z,95435.22
2022-09-13T17:17:36.028Z,95433.28
2022-09-13T17:22:38.840Z,95429.50
2022-09-13T17:27:42.933Z,95428.88
2022-09-13T17:32:45.478Z,95434.66
2022-09-13T17:37:48.048Z,95425.25
2022-09-13T17:42:52.062Z,95432.34
2022-09-13T17:47:55.096Z,95428.97
2022-09-13T17:52:57.659Z,95416.81
2022-09-13T17:58:01.561Z,95427.09
2022-09-13T18:03:04.266Z,95427.06
2022-09-13T18:08:06.900Z,95419.00
2022-09-13T18:13:10.846Z,95432.66
2022-09-13T18:18:13.442Z,95432.50
2022-09-13T18:23:15.972Z,95438.91
2022-09-13T18:28:20.006Z,95452.66
2022-09-13T18:33:22.695Z,95455.50
2022-09-13T18:38:25.261Z,95457.88
2022-09-13T18:43:29.160Z,95461.56
2022-09-13T18:48:32.905Z,95469.50
2022-09-13T18:53:36.190Z,95470.16
2022-09-13T18:58:40.910Z,95489.34
2022-09-13T19:03:48.060Z,95504.22
2022-09-13T19:08:51.287Z,95505.03
2022-09-13T19:13:55.363Z,95508.25
2022-09-13T19:18:58.200Z,95516.00
2022-09-13T19:24:06.508Z,95508.00
2022-09-13T19:29:14.730Z,95504.22
2022-09-13T19:34:18.118Z,95489.78
2022-09-13T19:39:20.859Z,95495.03
2022-09-13T19:44:24.755Z,95492.53
2022-09-13T19:49:27.289Z,95494.78
2022-09-13T19:54:29.942Z,95498.22
2022-09-13T19:59:34.309Z,95519.69
2022-09-13T20:04:36.945Z,95516.13
2022-09-13T20:09:41.547Z,95520.88
2022-09-13T20:14:45.474Z,95516.88
2022-09-13T20:19:50.289Z,95517.59
2022-09-13T20:24:54.145Z,95505.75
2022-09-13T20:29:58.074Z,95493.06
2022-09-13T20:35:01.061Z,95484.75
2022-09-13T20:40:03.915Z,95478.75
2022-09-13T20:45:08.490Z,95463.91
2022-09-13T20:50:11.539Z,95455.50
2022-09-13T20:55:15.095Z,95466.53
2022-09-13T21:00:19.145Z,95474.34
2022-09-13T21:05:22.073Z,95475.78
2022-09-13T21:10:26.134Z,95463.19
2022-09-13T21:15:30.060Z,95458.13
2022-09-13T21:20:34.086Z,95442.13
2022-09-13T21:25:36.808Z,95431.44
2022-09-13T21:30:41.108Z,95443.13
2022-09-13T21:35:44.078Z,95455.03
2022-09-13T21:40:54.619Z,95459.78
2022-09-13T21:46:03.268Z,95465.09
2022-09-13T21:51:06.906Z,95476.50
2022-09-13T21:56:10.313Z,95472.59
2022-09-13T22:01:15.887Z,95480.09
2022-09-13T22:06:19.686Z,95472.47
2022-09-13T22:11:23.525Z,95490.16
2022-09-13T22:16:28.387Z,95489.34
2022-09-13T22:21:33.448Z,95500.41
2022-09-13T22:26:36.923Z,95500.25
2022-09-13T22:31:41.718Z,95499.69
2022-09-13T22:36:44.317Z,95489.53
2022-09-13T22:41:47.096Z,95497.81
2022-09-13T22:46:51.030Z,95516.25
2022-09-13T22:51:53.581Z,95517.63
2022-09-13T22:56:56.152Z,95514.84
2022-09-13T23:02:00.046Z,95540.41
2022-09-13T23:07:02.597Z,95517.75
2022-09-13T23:12:05.319Z,95517.47
2022-09-13T23:17:09.233Z,95530.44
2022-09-13T23:22:11.776Z,95540.06
2022-09-13T23:27:14.395Z,95542.22
2022-09-13T23:32:18.325Z,95531.09
2022-09-13T23:37:20.866Z,95509.97
2022-09-13T23:42:23.731Z,95505.63
2022-09-13T23:47:27.635Z,95509.09
2022-09-13T23:52:30.171Z,95500.28
2022-09-13T23:57:32.745Z,95495.78
